Time;durP1;ratioP1;P1;durP2;ratioP2;P2;SDS_P1;SDS_P2;PMS_P1;PMS_P2;Temp;Humidity;BMP_temperature;BMP_pressure;BME280_temperature;BME280_humidity;BME280_pressure;Samples;Min_cycle;Max_cycle;Signal;HPM_P1;HPM_P2
2022/03/24 00:01:51;;;;;;;10.30;6.40;;;;;;;5.98;55.90;-23983.84;4999690;28;20203;-68
2022/03/24 00:04:39;;;;;;;9.80;6.33;;;;;;;5.65;57.35;-23974.47;5029501;28;20934;-69
2022/03/24 00:07:12;;;;;;;12.33;6.17;;;;;;;5.68;56.16;-23975.31;5011223;28;20207;-70
2022/03/24 00:09:37;;;;;;;11.43;6.50;;;;;;;5.50;57.46;-23970.22;5012068;28;20164;-70
2022/03/24 00:12:03;;;;;;;15.17;6.10;;;;;;;5.27;57.58;-23963.94;5011968;28;20543;-70
2022/03/24 00:14:29;;;;;;;10.63;6.33;;;;;;;5.53;58.59;-23971.19;5011898;28;20265;-69
2022/03/24 00:16:54;;;;;;;10.53;6.10;;;;;;;5.45;58.43;-23968.78;5012059;28;20230;-70
2022/03/24 00:19:22;;;;;;;13.53;6.90;;;;;;;4.88;58.84;-23952.84;5011807;28;20176;-70
2022/03/24 00:21:47;;;;;;;12.33;6.80;;;;;;;5.29;59.10;-23964.38;5012030;28;20191;-69
2022/03/24 00:24:13;;;;;;;11.50;6.43;;;;;;;4.80;58.39;-23950.56;5011472;28;20651;-69
2022/03/24 00:26:39;;;;;;;15.33;7.30;;;;;;;5.09;58.36;-23958.81;5011687;28;20655;-70
2022/03/24 00:29:05;;;;;;;11.33;6.53;;;;;;;4.83;59.67;-23951.44;5011889;28;20168;-69
2022/03/24 00:31:31;;;;;;;12.63;6.43;;;;;;;4.44;62.08;-23940.47;5011694;28;20203;-69
2022/03/24 00:33:57;;;;;;;10.13;6.10;;;;;;;4.55;62.21;-23943.47;5011836;28;20252;-69
2022/03/24 00:36:23;;;;;;;9.13;5.83;;;;;;;4.73;61.46;-23948.59;5013956;28;20196;-69
2022/03/24 00:38:52;;;;;;;18.57;6.70;;;;;;;4.48;61.54;-23941.63;5014917;28;20188;-68
2022/03/24 00:41:19;;;;;;;12.70;6.70;;;;;;;3.01;63.16;-23900.28;5003677;28;20247;-69
2022/03/24 00:43:45;;;;;;;14.50;7.63;;;;;;;4.24;63.14;-23934.91;5003668;28;20267;-71
2022/03/24 00:46:11;;;;;;;12.00;7.37;;;;;;;4.52;62.46;-23942.75;5011352;28;20271;-69
2022/03/24 00:48:36;;;;;;;15.67;7.73;;;;;;;4.51;62.12;-23942.31;5011459;28;20191;-70
2022/03/24 00:51:02;;;;;;;13.83;7.13;;;;;;;4.37;62.67;-23938.63;5011513;28;20186;-70
2022/03/24 00:53:29;;;;;;;16.70;8.00;;;;;;;3.73;63.80;-23920.53;5011625;28;20176;-69
2022/03/24 00:55:56;;;;;;;15.57;7.97;;;;;;;3.99;65.73;-23927.81;5011681;28;20533;-69
2022/03/24 00:58:21;;;;;;;15.03;7.83;;;;;;;3.62;65.23;-23917.41;5011209;28;20184;-69
2022/03/24 01:00:47;;;;;;;14.30;7.53;;;;;;;3.36;65.79;-23910.13;5011613;28;20172;-69
2022/03/24 01:03:13;;;;;;;13.43;7.93;;;;;;;3.35;68.38;-23909.69;5013510;28;20229;-69
2022/03/24 01:05:39;;;;;;;13.80;7.70;;;;;;;3.08;69.11;-23902.16;5024605;28;20218;-68
2022/03/24 01:08:08;;;;;;;14.27;7.87;;;;;;;2.90;69.47;-23897.00;5034353;28;20178;-69
2022/03/24 01:10:35;;;;;;;14.37;7.57;;;;;;;2.99;72.75;-23899.56;5037246;28;20198;-69
2022/03/24 01:13:03;;;;;;;10.37;7.50;;;;;;;2.62;72.53;-23889.31;5034207;28;20233;-70
2022/03/24 01:15:30;;;;;;;13.03;7.47;;;;;;;2.81;72.73;-23894.59;5034555;28;20652;-68
2022/03/24 01:18:00;;;;;;;14.30;7.47;;;;;;;3.23;72.20;-23906.28;5034623;28;20179;-68
2022/03/24 01:20:31;;;;;;;10.70;6.70;;;;;;;3.40;70.77;-23911.28;5034600;28;20189;-68
2022/03/24 01:22:58;;;;;;;12.27;6.93;;;;;;;2.88;71.31;-23896.59;5034392;28;20269;-70
2022/03/24 01:25:26;;;;;;;14.43;7.03;;;;;;;3.08;71.40;-23902.16;5034166;28;20168;-70
2022/03/24 01:27:52;;;;;;;17.83;8.17;;;;;;;2.75;73.60;-23892.72;5034300;28;20173;-69
2022/03/24 01:30:17;;;;;;;18.83;7.90;;;;;;;2.67;72.66;-23890.72;5034508;28;20177;-69
2022/03/24 01:32:44;;;;;;;18.70;8.40;;;;;;;2.81;73.21;-23894.44;5033895;28;20185;-69
2022/03/24 01:35:10;;;;;;;17.30;9.53;;;;;;;2.85;72.67;-23895.59;5034221;28;20196;-69
2022/03/24 01:37:36;;;;;;;16.70;9.07;;;;;;;3.32;72.99;-23908.84;5033792;28;20539;-69
2022/03/24 01:40:04;;;;;;;17.20;8.90;;;;;;;3.19;73.00;-23905.28;5028899;28;20180;-70
2022/03/24 01:42:34;;;;;;;21.47;9.33;;;;;;;3.17;74.31;-23904.56;5034134;28;20680;-69
2022/03/24 01:44:59;;;;;;;16.83;9.90;;;;;;;3.05;74.10;-23901.44;5032961;28;20177;-69
2022/03/24 01:47:25;;;;;;;18.30;9.60;;;;;;;3.10;75.21;-23902.84;5036276;28;20235;-68
2022/03/24 01:49:51;;;;;;;18.50;9.20;;;;;;;2.97;75.90;-23899.00;5032172;28;20184;-69
2022/03/24 01:52:19;;;;;;;18.90;10.20;;;;;;;2.51;76.39;-23886.03;5033632;28;20184;-71
2022/03/24 01:54:47;;;;;;;17.30;9.93;;;;;;;2.79;77.10;-23894.00;5033213;28;20550;-68
2022/03/24 01:57:15;;;;;;;16.10;9.70;;;;;;;2.71;78.94;-23891.59;5033473;28;20174;-68
2022/03/24 01:59:41;;;;;;;19.87;9.97;;;;;;;2.75;78.04;-23892.72;5035318;28;20238;-70
2022/03/24 02:02:08;;;;;;;20.67;9.80;;;;;;;2.40;77.66;-23882.88;5033270;28;20172;-69
2022/03/24 02:04:37;;;;;;;22.43;9.87;;;;;;;2.11;80.05;-23874.75;5015325;28;20184;-69
2022/03/24 02:07:17;;;;;;;18.40;9.23;;;;;;;2.64;79.90;-23889.88;5033004;28;20172;-68
2022/03/24 02:09:44;;;;;;;20.03;10.17;;;;;;;2.41;80.38;-23883.16;5014947;28;20265;-69
2022/03/24 02:12:23;;;;;;;22.33;10.07;;;;;;;2.50;81.42;-23885.88;5033127;28;20643;-68
2022/03/24 02:14:48;;;;;;;24.33;10.67;;;;;;;2.03;81.42;-23872.47;5032987;28;20170;-69
2022/03/24 02:17:19;;;;;;;26.67;9.83;;;;;;;2.37;81.36;-23882.16;5031940;28;20165;-69
2022/03/24 02:19:45;;;;;;;23.53;9.77;;;;;;;1.90;82.72;-23868.75;5032828;28;20637;-70
2022/03/24 02:22:15;;;;;;;17.97;9.50;;;;;;;2.01;81.48;-23871.88;5016881;28;20229;-68
2022/03/24 02:24:42;;;;;;;17.73;8.80;;;;;;;2.48;81.94;-23885.16;5013894;28;20192;-69
2022/03/24 02:27:08;;;;;;;22.90;9.93;;;;;;;1.81;82.74;-23866.31;5021909;28;20179;-69
2022/03/24 02:29:35;;;;;;;19.47;9.23;;;;;;;2.25;83.97;-23878.59;5034777;28;20586;-68
2022/03/24 02:32:02;;;;;;;18.40;9.77;;;;;;;1.90;83.78;-23868.88;5032868;28;20210;-69
2022/03/24 02:34:47;;;;;;;14.87;9.20;;;;;;;1.82;85.94;-23866.47;5015179;28;20641;-69
2022/03/24 02:37:20;;;;;;;17.37;9.10;;;;;;;1.62;86.60;-23860.88;5033091;28;20203;-69
2022/03/24 02:39:57;;;;;;;16.17;9.63;;;;;;;1.55;87.09;-23858.88;5033274;28;20199;-69
2022/03/24 02:42:25;;;;;;;16.43;9.43;;;;;;;1.60;87.04;-23860.47;5032658;28;20211;-69
2022/03/24 02:44:54;;;;;;;15.47;9.20;;;;;;;1.60;88.64;-23860.47;5015048;28;20234;-69
2022/03/24 02:47:20;;;;;;;20.17;8.63;;;;;;;1.61;89.02;-23860.75;5032864;28;20156;-69
2022/03/24 02:49:48;;;;;;;17.87;9.37;;;;;;;1.28;90.33;-23851.44;5032827;28;20524;-69
2022/03/24 02:52:14;;;;;;;23.77;9.67;;;;;;;1.82;90.91;-23866.59;5015168;28;20597;-69
2022/03/24 02:54:40;;;;;;;17.33;8.60;;;;;;;1.45;89.78;-23856.03;5032633;28;20198;-69
2022/03/24 02:57:07;;;;;;;16.80;8.73;;;;;;;1.79;89.92;-23865.75;5032304;28;20609;-70
2022/03/24 02:59:33;;;;;;;16.73;8.53;;;;;;;1.63;89.91;-23861.31;5037792;28;20187;-68
2022/03/24 03:02:01;;;;;;;18.77;9.60;;;;;;;1.29;92.18;-23851.75;4998688;28;20183;-68
2022/03/24 03:04:28;;;;;;;20.17;8.83;;;;;;;1.66;93.75;-23862.03;5031813;28;20175;-68
2022/03/24 03:06:55;;;;;;;17.43;8.97;;;;;;;1.14;91.27;-23847.31;5030305;28;20325;-68
2022/03/24 03:09:24;;;;;;;19.87;9.63;;;;;;;1.65;93.65;-23861.88;5013432;28;20179;-68
2022/03/24 03:11:59;;;;;;;16.53;8.77;;;;;;;1.53;92.47;-23858.31;5032764;28;20553;-68
2022/03/24 03:14:30;;;;;;;18.00;8.80;;;;;;;1.56;93.13;-23859.16;5031912;28;20178;-70
2022/03/24 03:17:23;;;;;;;16.90;9.37;;;;;;;1.62;91.87;-23860.88;5032393;28;20187;-69
2022/03/24 03:23:13;;;;;;;17.37;8.93;;;;;;;0.98;94.11;-23842.88;5031331;28;20286;-68
2022/03/24 03:25:49;;;;;;;18.33;8.87;;;;;;;0.96;93.70;-23842.16;5029923;28;20658;-69
2022/03/24 03:28:14;;;;;;;22.93;9.93;;;;;;;0.81;95.98;-23838.00;5033383;28;20259;-68
2022/03/24 03:30:40;;;;;;;21.13;9.03;;;;;;;1.17;97.32;-23848.16;5014953;28;20214;-68
2022/03/24 03:33:06;;;;;;;16.83;8.90;;;;;;;0.63;96.34;-23833.00;5032189;28;20183;-69
2022/03/24 03:35:31;;;;;;;17.93;10.23;;;;;;;1.16;94.71;-23847.88;5034089;28;20614;-68
2022/03/24 03:37:57;;;;;;;16.53;10.33;;;;;;;0.99;95.50;-23843.00;5032081;28;20187;-69
2022/03/24 03:40:23;;;;;;;21.53;9.73;;;;;;;0.61;96.05;-23832.44;5031862;28;20218;-68
2022/03/24 03:42:51;;;;;;;21.70;10.30;;;;;;;0.81;96.29;-23838.00;5031285;28;20179;-68
2022/03/24 03:45:17;;;;;;;17.40;9.20;;;;;;;0.82;97.64;-23838.28;5014397;28;20620;-69
2022/03/24 03:47:42;;;;;;;18.20;9.93;;;;;;;1.04;96.95;-23844.59;5032146;28;20164;-69
2022/03/24 03:50:27;;;;;;;19.13;9.67;;;;;;;1.13;98.26;-23847.03;5031642;28;20189;-68
2022/03/24 03:52:52;;;;;;;21.43;9.53;;;;;;;1.00;100.00;-23843.44;5032248;28;20175;-68
2022/03/24 03:55:19;;;;;;;17.17;9.43;;;;;;;1.08;100.00;-23845.72;5031394;28;20198;-68
2022/03/24 03:57:44;;;;;;;18.40;9.37;;;;;;;0.93;100.00;-23841.28;5031859;28;20182;-68
2022/03/24 04:03:05;;;;;;;18.30;9.73;;;;;;;1.01;100.00;-23843.59;5031280;28;20248;-70
2022/03/24 04:05:34;;;;;;;20.10;10.27;;;;;;;1.09;100.00;-23845.88;5031201;28;20236;-68
2022/03/24 04:08:01;;;;;;;23.63;10.60;;;;;;;0.61;100.00;-23832.44;5013495;28;20191;-68
2022/03/24 04:10:27;;;;;;;22.53;10.37;;;;;;;0.88;100.00;-23840.16;5032480;28;20187;-68
2022/03/24 04:12:55;;;;;;;21.70;10.20;;;;;;;0.51;100.00;-23829.56;5028985;28;20182;-69
2022/03/24 04:15:21;;;;;;;17.47;10.13;;;;;;;0.60;100.00;-23832.13;5021127;28;20198;-70
2022/03/24 04:17:47;;;;;;;20.80;10.00;;;;;;;0.75;100.00;-23836.28;5031344;28;20186;-69
2022/03/24 04:20:13;;;;;;;20.77;10.27;;;;;;;0.78;100.00;-23837.28;5030960;28;20195;-70
2022/03/24 04:22:39;;;;;;;23.57;10.70;;;;;;;0.73;100.00;-23835.72;5033599;28;20716;-69
2022/03/24 04:25:05;;;;;;;18.83;10.20;;;;;;;1.08;99.05;-23845.72;5034730;28;20173;-70
2022/03/24 04:27:30;;;;;;;20.50;10.73;;;;;;;1.07;98.67;-23845.31;5034792;28;20189;-68
2022/03/24 04:29:56;;;;;;;19.27;10.07;;;;;;;1.16;98.42;-23847.88;5032379;28;20228;-70
2022/03/24 04:32:23;;;;;;;18.07;9.90;;;;;;;1.21;99.52;-23849.44;5033646;28;20233;-69
2022/03/24 04:34:48;;;;;;;20.40;10.37;;;;;;;1.24;98.50;-23850.16;5023202;28;20189;-69
2022/03/24 04:37:15;;;;;;;17.93;9.37;;;;;;;1.39;98.82;-23854.44;5036145;28;20193;-70
2022/03/24 04:39:41;;;;;;;17.83;9.50;;;;;;;1.11;99.33;-23846.44;5037951;28;20195;-70
2022/03/24 04:42:08;;;;;;;23.87;11.33;;;;;;;1.02;96.24;-23844.00;5038815;28;20182;-70
2022/03/24 04:44:34;;;;;;;24.37;10.77;;;;;;;1.42;96.91;-23855.31;5038951;28;20194;-68
2022/03/24 04:46:59;;;;;;;30.20;10.93;;;;;;;1.01;96.85;-23843.72;5036224;28;20294;-69
2022/03/24 04:49:26;;;;;;;22.17;10.57;;;;;;;1.80;96.26;-23865.88;5037808;28;20249;-70
2022/03/24 04:51:53;;;;;;;21.47;10.67;;;;;;;1.95;95.57;-23870.16;5038733;28;20189;-70
2022/03/24 04:54:19;;;;;;;23.20;11.53;;;;;;;1.83;95.61;-23866.88;5019809;28;20198;-70
2022/03/24 04:56:45;;;;;;;22.37;10.43;;;;;;;1.61;94.43;-23860.59;5037077;28;20207;-70
2022/03/24 04:59:11;;;;;;;23.97;11.70;;;;;;;2.18;95.04;-23876.75;5037393;28;20195;-69
2022/03/24 05:01:36;;;;;;;24.47;11.23;;;;;;;2.78;89.66;-23893.59;5037131;28;20275;-69
2022/03/24 05:04:04;;;;;;;25.17;12.87;;;;;;;2.56;88.81;-23887.59;5036518;28;20619;-69
2022/03/24 05:06:31;;;;;;;28.00;11.57;;;;;;;2.79;87.14;-23894.00;5037491;28;20315;-70
2022/03/24 05:08:57;;;;;;;24.03;10.87;;;;;;;2.71;88.87;-23891.59;5035043;28;21106;-69
2022/03/24 05:11:22;;;;;;;27.20;10.23;;;;;;;2.43;90.24;-23883.75;5036608;28;20270;-68
2022/03/24 05:13:48;;;;;;;24.60;9.67;;;;;;;3.25;88.43;-23906.84;5038119;28;20184;-69
2022/03/24 05:16:14;;;;;;;24.27;11.50;;;;;;;3.18;87.30;-23904.84;5036814;28;20211;-70
2022/03/24 05:18:39;;;;;;;22.47;11.57;;;;;;;3.70;84.64;-23919.53;5032911;28;20174;-70
2022/03/24 05:21:05;;;;;;;35.93;12.20;;;;;;;3.38;87.19;-23910.69;5035586;28;20231;-70
2022/03/24 05:23:31;;;;;;;23.10;11.27;;;;;;;3.79;88.89;-23922.09;5035857;28;20758;-70
2022/03/24 05:25:56;;;;;;;22.10;10.60;;;;;;;3.79;85.04;-23922.09;5035374;28;20212;-71
2022/03/24 05:28:22;;;;;;;23.03;11.00;;;;;;;4.02;83.10;-23928.50;5034603;28;20286;-69
2022/03/24 05:30:48;;;;;;;22.50;10.73;;;;;;;4.44;81.34;-23940.47;5034643;28;20626;-70
2022/03/24 05:33:14;;;;;;;24.63;11.13;;;;;;;4.48;79.60;-23941.47;5018759;28;20366;-69
2022/03/24 05:35:39;;;;;;;20.00;9.83;;;;;;;4.56;77.95;-23943.75;5034432;28;20669;-70
2022/03/24 05:38:05;;;;;;;26.33;10.47;;;;;;;5.25;75.37;-23963.25;5035693;28;20210;-70
2022/03/24 05:40:32;;;;;;;20.33;10.27;;;;;;;5.48;70.76;-23969.78;5036184;28;20187;-70
2022/03/24 05:42:57;;;;;;;19.00;9.23;;;;;;;5.26;70.34;-23963.66;5034571;28;20183;-73
2022/03/24 05:45:23;;;;;;;19.47;9.60;;;;;;;5.76;70.37;-23977.75;5036851;28;20656;-70
2022/03/24 05:47:48;;;;;;;22.47;10.03;;;;;;;5.64;70.08;-23974.31;5035501;28;20218;-71
2022/03/24 05:50:14;;;;;;;21.97;9.13;;;;;;;6.36;69.29;-23994.34;5034693;28;20525;-70
2022/03/24 05:52:40;;;;;;;22.20;9.43;;;;;;;6.42;68.96;-23996.22;5036119;28;20337;-64
2022/03/24 05:55:08;;;;;;;17.47;9.53;;;;;;;7.07;67.18;-24014.38;5016351;28;20210;-64
2022/03/24 05:57:33;;;;;;;17.70;8.73;;;;;;;7.56;68.92;-24028.13;5034779;28;20175;-65
2022/03/24 05:59:58;;;;;;;15.00;8.47;;;;;;;7.63;68.76;-24030.09;5035767;28;20214;-64
2022/03/24 06:02:25;;;;;;;16.47;8.63;;;;;;;8.09;64.05;-24042.84;5035172;28;20256;-65
2022/03/24 06:04:53;;;;;;;15.07;8.17;;;;;;;8.93;61.35;-24066.34;5036296;28;20222;-64
2022/03/24 06:07:18;;;;;;;19.33;8.10;;;;;;;8.93;59.83;-24066.50;5034746;28;20642;-65
2022/03/24 06:09:48;;;;;;;21.20;8.17;;;;;;;9.41;56.16;-24079.91;5036207;28;20174;-65
2022/03/24 06:12:15;;;;;;;16.37;8.30;;;;;;;9.32;54.63;-24077.38;5035013;28;20190;-67
2022/03/24 06:14:40;;;;;;;15.40;8.57;;;;;;;9.70;54.55;-24087.97;5034684;28;20179;-66
2022/03/24 06:17:07;;;;;;;20.27;8.40;;;;;;;9.98;53.54;-24095.88;5031685;28;20187;-65
2022/03/24 06:19:35;;;;;;;26.33;8.50;;;;;;;10.24;52.70;-24103.09;5031804;28;20213;-66
2022/03/24 06:22:04;;;;;;;13.57;7.87;;;;;;;10.19;51.44;-24101.81;5028250;28;20670;-64
2022/03/24 06:24:34;;;;;;;16.27;7.73;;;;;;;10.64;51.38;-24114.25;5014825;28;20193;-65
2022/03/24 06:27:00;;;;;;;14.90;7.70;;;;;;;10.52;50.60;-24110.84;5034103;28;20184;-65
2022/03/24 06:29:25;;;;;;;15.30;7.80;;;;;;;10.77;48.74;-24117.78;5033633;28;20190;-65
2022/03/24 06:31:51;;;;;;;14.23;7.67;;;;;;;11.06;48.34;-24126.09;5035385;28;21022;-65
2022/03/24 06:34:16;;;;;;;20.93;9.00;;;;;;;11.27;47.98;-24131.88;5033730;28;20622;-65
2022/03/24 06:36:42;;;;;;;15.77;7.73;;;;;;;11.34;47.10;-24133.69;5016420;28;20206;-65
2022/03/24 06:39:08;;;;;;;18.43;7.67;;;;;;;11.10;47.20;-24126.94;5036165;28;20193;-65
2022/03/24 06:41:35;;;;;;;12.07;7.40;;;;;;;11.21;46.41;-24130.19;5034408;28;20653;-66
2022/03/24 06:44:00;;;;;;;15.53;8.00;;;;;;;11.76;46.67;-24145.41;5034374;28;20178;-65
2022/03/24 06:46:29;;;;;;;17.33;7.65;;;;;;;11.59;46.20;-24140.75;5035668;28;20195;-65
2022/03/24 06:48:54;;;;;;;16.10;7.80;;;;;;;11.73;45.18;-24144.56;5033484;28;20278;-65
2022/03/24 06:51:21;;;;;;;16.20;7.97;;;;;;;12.02;45.82;-24152.72;5034569;28;20191;-65
2022/03/24 06:53:46;;;;;;;13.97;7.30;;;;;;;12.32;44.69;-24161.03;5033855;28;20176;-64
2022/03/24 06:56:12;;;;;;;16.77;7.50;;;;;;;12.32;44.14;-24161.16;5035604;28;20201;-65
2022/03/24 06:58:38;;;;;;;15.43;7.63;;;;;;;12.40;44.15;-24163.41;5034418;28;20275;-65
2022/03/24 07:01:04;;;;;;;17.70;8.45;;;;;;;12.11;43.78;-24155.25;5033829;28;20365;-65
2022/03/24 07:03:29;;;;;;;20.40;7.97;;;;;;;12.14;44.00;-24155.97;5031198;28;21224;-65
2022/03/24 07:05:55;;;;;;;20.15;8.40;;;;;;;12.42;43.99;-24163.69;5032034;28;20226;-66
2022/03/24 07:08:23;;;;;;;16.58;8.13;;;;;;;12.58;43.78;-24168.34;5034540;28;20191;-64
2022/03/24 07:10:49;;;;;;;19.33;7.90;;;;;;;12.40;43.92;-24163.41;5032178;28;20171;-64
2022/03/24 07:13:16;;;;;;;17.63;8.13;;;;;;;12.88;42.97;-24176.63;5032231;28;20790;-65
2022/03/24 07:15:41;;;;;;;13.50;7.70;;;;;;;13.27;41.75;-24187.47;5032150;28;20672;-65
2022/03/24 07:18:08;;;;;;;14.88;7.80;;;;;;;13.00;41.65;-24180.00;5033772;28;20237;-65
2022/03/24 07:20:35;;;;;;;21.55;7.80;;;;;;;13.24;41.89;-24186.63;5033773;28;20183;-66
2022/03/24 07:23:03;;;;;;;14.88;7.90;;;;;;;13.85;41.54;-24203.47;5032414;28;20275;-65
2022/03/24 07:25:30;;;;;;;15.20;7.10;;;;;;;13.86;40.81;-24203.75;5013558;28;20558;-65
2022/03/24 07:27:55;;;;;;;17.35;7.65;;;;;;;13.69;39.99;-24199.13;5033544;28;20183;-66
2022/03/24 07:30:21;;;;;;;16.63;7.20;;;;;;;13.82;39.90;-24202.78;5033999;28;20191;-65
2022/03/24 07:32:46;;;;;;;17.83;7.25;;;;;;;13.49;40.51;-24193.50;5034328;28;20634;-65
2022/03/24 07:35:14;;;;;;;12.20;7.15;;;;;;;13.69;41.01;-24199.13;5034196;28;20202;-62
2022/03/24 07:37:40;;;;;;;15.57;7.07;;;;;;;14.21;41.55;-24213.56;5032995;28;20178;-65
2022/03/24 07:40:08;;;;;;;10.55;6.82;;;;;;;14.49;42.15;-24221.44;5032780;28;20204;-62
2022/03/24 07:42:34;;;;;;;11.18;7.30;;;;;;;14.42;41.84;-24219.31;5033782;28;20206;-62
2022/03/24 07:45:00;;;;;;;14.60;7.07;;;;;;;14.33;41.18;-24216.81;5033649;28;20179;-63
2022/03/24 07:47:26;;;;;;;18.48;7.68;;;;;;;14.70;42.10;-24227.19;5033901;28;20557;-62
2022/03/24 07:49:52;;;;;;;20.63;7.57;;;;;;;14.85;40.88;-24231.38;5032006;28;20215;-60
2022/03/24 07:52:17;;;;;;;18.63;7.95;;;;;;;14.62;41.53;-24224.94;5032879;28;20179;-63
2022/03/24 07:54:55;;;;;;;15.77;7.50;;;;;;;15.37;40.46;-24245.81;5034010;28;20529;-64
2022/03/24 07:57:21;;;;;;;18.58;8.00;;;;;;;15.19;40.53;-24240.78;5033672;28;20198;-63
2022/03/24 07:59:47;;;;;;;19.50;8.00;;;;;;;15.04;39.08;-24236.72;5033212;28;20258;-62
2022/03/24 08:02:12;;;;;;;16.05;7.45;;;;;;;15.09;40.35;-24237.81;5034702;28;20731;-61
2022/03/24 08:04:38;;;;;;;19.70;7.68;;;;;;;14.99;39.25;-24235.31;5032976;28;20178;-63
2022/03/24 08:07:04;;;;;;;19.48;7.50;;;;;;;15.56;38.57;-24250.84;5033341;28;20183;-61
2022/03/24 08:09:33;;;;;;;20.08;7.50;;;;;;;15.23;39.99;-24241.88;5015550;28;20197;-61
2022/03/24 08:11:59;;;;;;;14.38;7.57;;;;;;;14.81;38.98;-24230.25;5034793;28;20224;-62
2022/03/24 08:14:25;;;;;;;13.25;7.40;;;;;;;15.38;39.86;-24245.94;5038869;28;20186;-63
2022/03/24 08:16:50;;;;;;;14.88;7.70;;;;;;;15.14;39.86;-24239.38;5037755;28;20256;-63
2022/03/24 08:19:16;;;;;;;12.65;7.68;;;;;;;15.80;40.15;-24257.72;5037622;28;20195;-62
2022/03/24 08:21:42;;;;;;;15.00;7.60;;;;;;;15.91;38.94;-24260.66;5042003;28;20195;-62
2022/03/24 08:24:09;;;;;;;16.40;7.70;;;;;;;16.01;38.45;-24263.31;5026312;28;20614;-63
2022/03/24 08:26:35;;;;;;;15.23;7.28;;;;;;;16.13;40.15;-24266.66;5035733;28;20179;-61
2022/03/24 08:29:01;;;;;;;16.02;7.70;;;;;;;15.82;37.88;-24258.13;5041066;28;20213;-61
2022/03/24 08:31:26;;;;;;;20.50;7.78;;;;;;;15.71;38.30;-24255.06;5018201;28;20184;-61
2022/03/24 08:33:52;;;;;;;16.27;7.80;;;;;;;16.41;37.96;-24274.34;5034143;28;20262;-63
2022/03/24 08:36:18;;;;;;;15.63;7.65;;;;;;;16.59;37.42;-24279.41;5034381;28;20213;-61
2022/03/24 08:38:43;;;;;;;13.52;7.70;;;;;;;16.64;36.58;-24280.94;5033996;28;20171;-63
2022/03/24 08:41:09;;;;;;;13.60;7.88;;;;;;;16.42;36.96;-24274.63;5035525;28;20182;-63
2022/03/24 08:43:34;;;;;;;13.35;7.63;;;;;;;16.73;36.56;-24283.31;5014537;28;20195;-59
2022/03/24 08:46:00;;;;;;;17.00;7.50;;;;;;;16.69;35.58;-24282.31;5026130;28;20248;-63
2022/03/24 08:48:25;;;;;;;15.32;7.40;;;;;;;16.79;35.66;-24285.13;5027117;28;20192;-62
2022/03/24 08:50:51;;;;;;;23.05;8.48;;;;;;;16.94;34.86;-24289.03;5027416;28;20186;-63
2022/03/24 08:53:16;;;;;;;12.77;7.78;;;;;;;16.93;35.26;-24288.75;5033935;28;20179;-63
2022/03/24 08:55:42;;;;;;;24.95;8.95;;;;;;;17.27;34.91;-24298.25;5036382;28;20217;-62
2022/03/24 08:58:08;;;;;;;16.27;8.02;;;;;;;16.99;34.21;-24290.56;5034743;28;20202;-61
2022/03/24 09:00:34;;;;;;;14.90;8.32;;;;;;;17.07;34.54;-24292.66;5034808;28;20645;-61
2022/03/24 09:03:00;;;;;;;19.33;7.97;;;;;;;17.37;33.44;-24301.03;5034442;28;20720;-62
2022/03/24 09:05:26;;;;;;;21.42;8.70;;;;;;;16.95;33.37;-24289.44;5034478;28;20717;-63
2022/03/24 09:07:52;;;;;;;16.60;8.35;;;;;;;17.36;32.62;-24300.75;5034874;28;20191;-60
2022/03/24 09:10:18;;;;;;;23.23;8.57;;;;;;;17.42;33.28;-24302.28;5034587;28;20172;-62
2022/03/24 09:12:45;;;;;;;20.30;8.90;;;;;;;17.40;30.93;-24301.72;5034428;28;20551;-62
2022/03/24 09:15:13;;;;;;;13.60;8.82;;;;;;;17.54;29.43;-24305.78;5033904;28;20209;-62
2022/03/24 09:17:39;;;;;;;15.63;8.40;;;;;;;18.02;30.75;-24318.91;5040791;28;20191;-61
2022/03/24 09:20:11;;;;;;;17.42;9.02;;;;;;;17.92;30.34;-24316.09;5034048;28;20179;-61
2022/03/24 09:22:42;;;;;;;17.48;8.48;;;;;;;18.05;30.55;-24319.72;5034840;28;20187;-62
2022/03/24 09:25:09;;;;;;;14.93;8.18;;;;;;;17.87;28.64;-24314.72;5033709;28;20182;-63
2022/03/24 09:27:35;;;;;;;15.68;9.13;;;;;;;18.15;28.72;-24322.38;5033043;28;20179;-61
2022/03/24 09:30:02;;;;;;;15.07;8.90;;;;;;;18.27;29.36;-24325.72;5038607;28;20245;-61
2022/03/24 09:32:27;;;;;;;15.88;9.20;;;;;;;18.05;28.99;-24319.88;5030011;28;20179;-64
2022/03/24 09:34:54;;;;;;;17.05;9.05;;;;;;;18.47;29.48;-24331.28;5034025;28;20627;-61
2022/03/24 09:37:22;;;;;;;17.00;9.05;;;;;;;18.33;30.44;-24327.53;5034181;28;20175;-63
2022/03/24 09:39:48;;;;;;;16.42;8.65;;;;;;;18.80;28.46;-24340.34;5034094;28;20183;-62
2022/03/24 09:42:13;;;;;;;20.92;8.95;;;;;;;18.02;29.57;-24318.91;5033431;28;20520;-63
2022/03/24 09:44:41;;;;;;;22.77;9.18;;;;;;;18.48;27.01;-24331.72;5033733;28;20179;-62
2022/03/24 09:47:09;;;;;;;18.77;9.55;;;;;;;18.21;26.80;-24324.06;5034289;28;20631;-62
2022/03/24 09:49:35;;;;;;;16.05;9.27;;;;;;;18.64;28.10;-24335.91;5034080;28;20592;-63
2022/03/24 09:52:01;;;;;;;14.27;9.00;;;;;;;19.05;26.70;-24347.31;5033677;28;20166;-62
2022/03/24 09:54:26;;;;;;;18.38;9.13;;;;;;;18.54;27.29;-24333.25;5033426;28;20254;-63
2022/03/24 09:56:52;;;;;;;19.98;9.82;;;;;;;18.63;26.96;-24335.75;5032791;28;20226;-63
2022/03/24 09:59:17;;;;;;;13.77;8.73;;;;;;;18.98;26.18;-24345.38;5040198;28;20189;-62
2022/03/24 10:01:43;;;;;;;21.85;8.98;;;;;;;19.25;27.30;-24352.75;5037334;28;20190;-64
2022/03/24 10:04:11;;;;;;;19.35;10.02;;;;;;;19.15;27.31;-24349.94;4997924;28;20188;-62
2022/03/24 10:06:39;;;;;;;17.35;9.57;;;;;;;19.31;25.98;-24354.53;5033970;28;20250;-63
2022/03/24 10:09:05;;;;;;;13.65;9.57;;;;;;;18.85;26.57;-24341.75;5032478;28;20564;-64
2022/03/24 10:11:30;;;;;;;14.50;9.57;;;;;;;19.09;26.46;-24348.28;5033279;28;20182;-62
2022/03/24 10:13:58;;;;;;;23.02;10.32;;;;;;;19.25;26.47;-24352.88;5015497;28;20163;-61
2022/03/24 10:16:33;;;;;;;16.63;9.02;;;;;;;18.85;25.97;-24341.75;5033308;28;20207;-62
2022/03/24 10:19:07;;;;;;;19.30;10.13;;;;;;;18.80;26.97;-24340.34;5033248;28;20159;-60
2022/03/24 10:21:35;;;;;;;19.23;10.05;;;;;;;19.30;25.71;-24354.13;5032911;28;20248;-62
2022/03/24 10:24:13;;;;;;;19.42;9.25;;;;;;;18.91;25.76;-24343.56;5031976;28;20175;-64
2022/03/24 10:26:41;;;;;;;16.80;10.27;;;;;;;19.23;25.97;-24352.31;5032611;28;20606;-61
2022/03/24 10:29:08;;;;;;;24.10;10.18;;;;;;;19.28;26.14;-24353.72;5032426;28;20304;-61
2022/03/24 10:31:36;;;;;;;17.60;9.95;;;;;;;19.35;26.41;-24355.53;5032249;28;20233;-62
2022/03/24 10:34:02;;;;;;;18.50;9.63;;;;;;;19.33;27.19;-24355.09;5031980;28;20604;-62
2022/03/24 10:36:28;;;;;;;15.73;9.25;;;;;;;19.30;25.30;-24354.28;5030875;28;20246;-63
2022/03/24 10:39:04;;;;;;;22.52;9.70;;;;;;;19.45;27.54;-24358.31;5031974;28;20171;-62
2022/03/24 10:41:31;;;;;;;17.83;9.30;;;;;;;19.63;26.89;-24363.16;5032036;28;20175;-62
2022/03/24 10:44:09;;;;;;;15.38;9.40;;;;;;;19.14;27.04;-24349.69;5032104;28;20684;-62
2022/03/24 10:46:36;;;;;;;14.82;10.02;;;;;;;19.46;27.69;-24358.44;5032994;28;20240;-63
2022/03/24 10:49:19;;;;;;;18.75;9.02;;;;;;;19.89;24.82;-24370.41;5036981;28;20539;-63
2022/03/24 10:51:47;;;;;;;18.38;9.45;;;;;;;19.68;25.67;-24364.56;5032916;28;20238;-64
2022/03/24 10:54:22;;;;;;;16.10;9.55;;;;;;;19.91;25.13;-24370.97;5029561;28;20642;-63
2022/03/24 10:56:54;;;;;;;17.83;9.70;;;;;;;19.95;27.66;-24372.06;5033475;28;20205;-61
2022/03/24 10:59:20;;;;;;;14.30;9.82;;;;;;;19.74;25.85;-24366.22;5036846;28;20267;-63
2022/03/24 11:01:47;;;;;;;14.73;9.73;;;;;;;19.34;26.59;-24355.25;5015133;28;20184;-63
2022/03/24 11:04:14;;;;;;;17.85;9.80;;;;;;;18.52;26.97;-24332.81;5032031;28;20175;-62
2022/03/24 11:06:50;;;;;;;19.17;9.75;;;;;;;19.45;25.42;-24358.16;5032168;28;20564;-63
2022/03/24 11:09:45;;;;;;;22.15;9.90;;;;;;;19.92;25.85;-24371.09;5032201;28;20163;-62
2022/03/24 11:12:29;;;;;;;20.50;10.32;;;;;;;20.00;25.08;-24373.47;5030130;28;20210;-63
2022/03/24 11:15:00;;;;;;;17.85;9.45;;;;;;;20.09;27.15;-24375.97;5031472;28;20163;-63
2022/03/24 11:17:29;;;;;;;16.08;10.20;;;;;;;20.25;25.18;-24380.25;5032145;28;20201;-61
2022/03/24 11:20:04;;;;;;;19.02;9.75;;;;;;;19.78;25.30;-24367.47;5036227;28;20191;-61
2022/03/24 11:22:47;;;;;;;23.98;9.23;;;;;;;20.12;24.50;-24376.78;5031658;28;20213;-62
2022/03/24 11:25:12;;;;;;;16.67;9.52;;;;;;;19.99;23.00;-24373.19;5011616;28;20599;-63
2022/03/24 11:27:39;;;;;;;14.45;9.57;;;;;;;19.81;25.79;-24368.19;5016970;28;20696;-60